Terminal Aerodrome Forecast
Issued by NWS Jackson, MS

Home | Current Version | Previous Version | Text Only | Print | Product List | Glossary On
Versions: 1 2 3 4 5 6 7 8 9 10 11 12 13 14 15
000
FTUS44 KJAN 271140
TAFGLH
TAF
KGLH 271140Z 2712/2812 04011KT P6SM BKN200
     FM271800 06018G24KT P6SM BKN150
     FM280100 04013KT P6SM BKN250
     FM280600 04013KT 6SM -SHRA OVC035=

USA.gov is the U.S. government's official web portal to all federal, state and local government web resources and services.